createdAt,value
2023-01-13T00:00:26.608Z,99075.94
2023-01-13T00:04:31.894Z,99084.78
2023-01-13T00:08:34.195Z,99085.22
2023-01-13T00:12:39.838Z,99082.06
2023-01-13T00:16:41.792Z,99089.41
2023-01-13T00:20:43.769Z,99098.75
2023-01-13T00:24:45.819Z,99105.22
2023-01-13T00:28:48.952Z,99114.78
2023-01-13T00:32:50.999Z,99101.41
2023-01-13T00:36:53.140Z,99097.56
2023-01-13T00:41:00.386Z,99093.75
2023-01-13T00:45:02.467Z,99090.91
2023-01-13T00:49:04.868Z,99079.38
2023-01-13T00:53:06.931Z,99076.53
2023-01-13T00:57:09.185Z,99070.84
2023-01-13T01:01:20.521Z,99062.72
2023-01-13T01:05:22.780Z,99062.50
2023-01-13T01:09:26.692Z,99057.00
2023-01-13T01:13:28.923Z,99073.44
2023-01-13T01:17:31.015Z,99060.09
2023-01-13T01:21:33.582Z,99067.53
2023-01-13T01:25:35.639Z,99076.47
2023-01-13T01:29:37.834Z,99090.25
2023-01-13T01:33:41.253Z,99086.84
2023-01-13T01:37:43.272Z,99093.94
2023-01-13T01:42:05.199Z,99089.44
2023-01-13T01:46:07.659Z,99102.22
2023-01-13T01:50:10.590Z,99081.56
2023-01-13T01:54:19.955Z,99073.25
2023-01-13T01:58:27.758Z,99056.66
2023-01-13T02:02:30.912Z,99067.19
2023-01-13T02:06:33.163Z,99056.25
2023-01-13T02:10:35.555Z,99058.47
2023-01-13T02:14:39.422Z,99072.00
2023-01-13T02:19:02.972Z,99074.28
2023-01-13T02:24:02.789Z,99076.94
2023-01-13T02:28:26.655Z,99061.13
2023-01-13T02:32:49.589Z,99051.19
2023-01-13T02:37:07.947Z,99047.34
2023-01-13T02:41:37.244Z,99042.31
2023-01-13T02:46:06.817Z,99043.13
2023-01-13T02:50:17.519Z,99030.19
2023-01-13T02:54:25.767Z,99020.66
2023-01-13T02:58:29.726Z,99007.25
2023-01-13T03:02:32.293Z,99010.03
2023-01-13T03:07:13.153Z,99002.47
2023-01-13T03:11:23.010Z,99016.25
2023-01-13T03:15:46.079Z,99017.03
2023-01-13T03:20:06.646Z,99015.09
2023-01-13T03:24:25.805Z,99004.84
2023-01-13T03:28:35.238Z,98999.59
2023-01-13T03:32:41.269Z,98993.22
2023-01-13T03:36:47.790Z,98990.97
2023-01-13T03:40:58.361Z,98985.69
2023-01-13T03:45:10.115Z,98988.13
2023-01-13T03:49:15.480Z,98969.22
2023-01-13T03:53:30.233Z,98965.94
2023-01-13T03:57:34.867Z,98970.56
2023-01-13T04:01:46.020Z,98974.28
2023-01-13T04:05:53.648Z,98956.03
2023-01-13T04:10:02.819Z,98972.31
2023-01-13T04:14:09.282Z,98981.38
2023-01-13T04:18:15.895Z,98989.03
2023-01-13T04:22:18.041Z,98984.59
2023-01-13T04:26:20.117Z,98991.09
2023-01-13T04:30:22.094Z,99002.41
2023-01-13T04:34:25.139Z,98996.31
2023-01-13T04:38:28.003Z,99000.53
2023-01-13T04:42:30.042Z,99003.13
2023-01-13T04:46:32.335Z,98997.63
2023-01-13T04:50:34.599Z,99005.69
2023-01-13T04:54:36.723Z,99004.44
2023-01-13T04:58:38.796Z,99018.44
2023-01-13T05:02:41.709Z,99024.72
2023-01-13T05:06:43.884Z,99024.72
2023-01-13T05:10:46.067Z,99018.84
2023-01-13T05:15:07.113Z,99028.56
2023-01-13T05:19:09.205Z,99009.50
2023-01-13T05:23:30.549Z,99018.22
2023-01-13T05:27:33.852Z,99007.47
2023-01-13T05:31:36.052Z,98998.56
2023-01-13T05:35:40.058Z,99008.91
2023-01-13T05:40:01.823Z,99010.38
2023-01-13T05:44:04.163Z,99014.31
2023-01-13T05:48:06.284Z,99018.59
2023-01-13T05:52:08.399Z,99016.19
2023-01-13T05:56:11.265Z,99001.75
2023-01-13T06:00:13.909Z,99004.78
2023-01-13T06:04:16.395Z,99009.03
2023-01-13T06:08:19.231Z,99015.41
2023-01-13T06:12:21.336Z,99016.63
2023-01-13T06:16:23.494Z,99006.69
2023-01-13T06:20:25.990Z,99016.41
2023-01-13T06:24:28.684Z,99008.91
2023-01-13T06:28:30.788Z,99017.00
2023-01-13T06:32:38.997Z,99013.13
2023-01-13T06:36:48.990Z,99011.50
2023-01-13T06:40:51.262Z,99014.94
2023-01-13T06:44:53.568Z,99009.84
2023-01-13T06:48:55.661Z,99011.28
2023-01-13T06:52:57.814Z,98999.31
2023-01-13T06:56:59.963Z,99000.13
2023-01-13T07:01:02.360Z,98995.47
2023-01-13T07:05:04.788Z,99001.72
2023-01-13T07:09:07.086Z,98993.00
2023-01-13T07:13:27.614Z,98988.91
2023-01-13T07:17:30.036Z,98988.09
2023-01-13T07:21:32.022Z,98996.06
2023-01-13T07:25:35.272Z,98987.31
2023-01-13T07:29:37.863Z,99006.34
2023-01-13T07:33:40.185Z,99007.59
2023-01-13T07:37:42.466Z,99023.25
2023-01-13T07:42:03.215Z,99026.91
2023-01-13T07:46:06.568Z,99026.50
2023-01-13T07:50:09.400Z,99037.22
2023-01-13T07:54:11.601Z,99050.50
2023-01-13T07:58:13.745Z,99044.19
2023-01-13T08:02:16.093Z,99047.53
2023-01-13T08:06:18.849Z,99055.63
2023-01-13T08:10:20.939Z,99059.56
2023-01-13T08:14:23.059Z,99066.09
2023-01-13T08:18:25.289Z,99055.56
2023-01-13T08:22:27.435Z,99054.31
2023-01-13T08:26:29.824Z,99054.41
2023-01-13T08:30:32.254Z,99045.09
2023-01-13T08:34:36.466Z,99049.19
2023-01-13T08:38:40.044Z,99064.13
2023-01-13T08:42:42.299Z,99069.13
2023-01-13T08:46:44.625Z,99066.53
2023-01-13T08:50:46.709Z,99058.81
2023-01-13T08:54:48.885Z,99054.50
2023-01-13T08:58:51.129Z,99068.81
2023-01-13T09:02:53.290Z,99073.44
2023-01-13T09:06:55.868Z,99052.75
2023-01-13T09:10:58.139Z,99042.53
2023-01-13T09:15:01.547Z,99067.75
2023-01-13T09:19:03.706Z,99067.84
2023-01-13T09:35:30.753Z,99056.06
2023-01-13T09:39:34.233Z,99056.25
2023-01-13T09:43:54.441Z,99045.41
2023-01-13T09:48:15.323Z,99050.13
2023-01-13T09:52:26.644Z,99040.69
2023-01-13T09:56:29.156Z,99047.72
2023-01-13T10:00:45.099Z,99045.69
2023-01-13T10:05:10.533Z,99040.09
2023-01-13T10:09:26.606Z,99026.72
2023-01-13T10:13:30.810Z,99020.34
2023-01-13T10:17:47.598Z,99026.41
2023-01-13T10:22:02.134Z,99021.53
2023-01-13T10:26:29.010Z,99014.34
2023-01-13T10:30:39.315Z,99013.13
2023-01-13T10:34:57.511Z,99006.69
2023-01-13T10:39:14.843Z,99010.50
2023-01-13T10:43:17.218Z,98997.91
2023-01-13T10:47:32.061Z,98994.84
2023-01-13T10:51:40.361Z,98993.09
2023-01-13T10:55:42.724Z,98993.91
2023-01-13T10:59:44.942Z,98994.47
2023-01-13T11:03:48.290Z,98980.53
2023-01-13T11:07:58.130Z,98984.16
2023-01-13T11:12:00.462Z,98972.97
2023-01-13T11:16:12.706Z,98952.72
2023-01-13T11:20:29.675Z,98953.50
2023-01-13T11:24:44.925Z,98952.50
2023-01-13T11:29:22.431Z,98931.91
2023-01-13T11:34:03.625Z,98930.47
2023-01-13T11:38:34.899Z,98929.06
2023-01-13T11:42:45.658Z,98917.84
2023-01-13T11:46:52.357Z,98908.06
2023-01-13T11:51:08.042Z,98908.13
2023-01-13T11:55:22.822Z,98898.19
2023-01-13T11:59:52.477Z,98903.97
2023-01-13T12:04:15.879Z,98904.00
2023-01-13T12:08:48.429Z,98910.44
2023-01-13T12:13:19.459Z,98902.25
2023-01-13T12:17:27.110Z,98901.28
2023-01-13T12:21:41.560Z,98894.66
2023-01-13T12:25:49.769Z,98892.34
2023-01-13T12:29:55.707Z,98884.59
2023-01-13T12:34:09.343Z,98888.13
2023-01-13T12:38:30.220Z,98872.75
2023-01-13T12:43:29.097Z,98859.28
2023-01-13T12:47:37.565Z,98852.63
2023-01-13T12:51:51.969Z,98843.16
2023-01-13T12:55:54.209Z,98849.88
2023-01-13T12:59:59.308Z,98836.97
2023-01-13T13:04:13.268Z,98843.91
2023-01-13T13:08:15.655Z,98837.38
2023-01-13T13:13:01.451Z,98838.75
2023-01-13T13:17:28.570Z,98824.47
2023-01-13T13:22:09.361Z,98832.88
2023-01-13T13:26:46.119Z,98825.50
2023-01-13T13:31:06.276Z,98817.53
2023-01-13T13:35:28.414Z,98801.28
2023-01-13T13:39:54.241Z,98813.25
2023-01-13T13:44:21.160Z,98813.00
2023-01-13T13:48:29.339Z,98806.06
2023-01-13T13:52:54.320Z,98811.16
2023-01-13T13:56:56.559Z,98825.03
2023-01-13T14:01:00.486Z,98815.66
2023-01-13T14:05:15.079Z,98823.34
2023-01-13T14:09:19.131Z,98820.09
2023-01-13T14:13:30.830Z,98821.44
2023-01-13T14:17:34.635Z,98831.00
2023-01-13T14:21:36.880Z,98831.75
2023-01-13T14:25:47.756Z,98840.91
2023-01-13T14:29:53.915Z,98822.16
2023-01-13T14:33:58.531Z,98814.75
2023-01-13T14:38:04.482Z,98801.44
2023-01-13T14:42:13.579Z,98790.28
2023-01-13T14:46:17.820Z,98784.97
2023-01-13T14:50:28.230Z,98793.13
2023-01-13T14:54:45.761Z,98786.44
2023-01-13T14:58:49.897Z,98785.50
2023-01-13T15:02:58.427Z,98785.31
2023-01-13T15:07:01.637Z,98771.22
2023-01-13T15:11:06.696Z,98772.22
2023-01-13T15:15:34.657Z,98777.66
2023-01-13T15:19:36.736Z,98770.56
2023-01-13T15:23:41.180Z,98772.13
2023-01-13T15:27:45.304Z,98770.44
2023-01-13T15:31:47.593Z,98765.91
2023-01-13T15:35:52.082Z,98759.69
2023-01-13T15:39:57.483Z,98755.84
2023-01-13T15:44:46.983Z,98756.31
2023-01-13T15:48:53.020Z,98753.53
2023-01-13T15:52:57.808Z,98753.41
2023-01-13T15:57:02.784Z,98756.06
2023-01-13T16:01:05.384Z,98756.09
2023-01-13T16:05:08.960Z,98751.66
2023-01-13T16:09:14.033Z,98764.28
2023-01-13T16:13:17.999Z,98773.59
2023-01-13T16:17:23.914Z,98784.66
2023-01-13T16:21:27.183Z,98786.44
2023-01-13T16:25:29.437Z,98789.34
2023-01-13T16:29:31.541Z,98803.75
2023-01-13T16:33:33.895Z,98810.53
2023-01-13T16:37:36.103Z,98814.03
2023-01-13T16:42:02.227Z,98823.00
2023-01-13T16:46:34.078Z,98822.63
2023-01-13T16:50:41.401Z,98830.84
2023-01-13T16:54:43.684Z,98825.84
2023-01-13T16:58:45.842Z,98831.66
2023-01-13T17:02:48.447Z,98822.88
2023-01-13T17:06:58.606Z,98825.84
2023-01-13T17:11:01.020Z,98836.28
2023-01-13T17:15:04.380Z,98843.53
2023-01-13T17:19:07.070Z,98837.09
2023-01-13T17:23:09.277Z,98840.31
2023-01-13T17:27:11.585Z,98832.44
2023-01-13T17:31:13.791Z,98842.31
2023-01-13T17:35:19.043Z,98835.94
2023-01-13T17:39:24.548Z,98839.66
2023-01-13T17:43:26.893Z,98861.06
2023-01-13T17:47:29.046Z,98844.81
2023-01-13T17:51:31.246Z,98848.03
2023-01-13T17:55:33.437Z,98835.50
2023-01-13T17:59:35.730Z,98839.63
2023-01-13T18:03:39.261Z,98833.91
2023-01-13T18:07:41.423Z,98843.66
2023-01-13T18:11:44.251Z,98852.69
2023-01-13T18:15:47.108Z,98843.91
2023-01-13T18:20:08.705Z,98849.13
2023-01-13T18:24:35.508Z,98850.97
2023-01-13T18:28:37.673Z,98852.47
2023-01-13T18:32:39.783Z,98850.09
2023-01-13T18:36:41.998Z,98848.97
2023-01-13T18:40:44.924Z,98850.88
2023-01-13T18:44:47.074Z,98867.47
2023-01-13T18:48:49.210Z,98872.03
2023-01-13T18:52:52.073Z,98866.00
2023-01-13T18:56:54.303Z,98857.25
2023-01-13T19:01:03.646Z,98846.16
2023-01-13T19:05:06.874Z,98855.16
2023-01-13T19:09:11.183Z,98865.44
2023-01-13T19:13:16.355Z,98862.81
2023-01-13T19:17:19.223Z,98868.88
2023-01-13T19:21:21.723Z,98868.03
2023-01-13T19:25:24.759Z,98861.66
2023-01-13T19:29:27.059Z,98861.88
2023-01-13T19:33:31.140Z,98865.28
2023-01-13T19:37:34.377Z,98861.09
2023-01-13T19:41:55.413Z,98866.00
2023-01-13T19:45:57.609Z,98872.25
2023-01-13T19:50:03.636Z,98868.88
2023-01-13T19:54:05.814Z,98879.84
2023-01-13T19:58:09.326Z,98884.09
2023-01-13T20:02:27.885Z,98879.38
2023-01-13T20:06:32.856Z,98878.25
2023-01-13T20:10:34.861Z,98885.38
2023-01-13T20:14:37.142Z,98892.16
2023-01-13T20:18:39.369Z,98902.28
2023-01-13T20:22:41.559Z,98910.25
2023-01-13T20:26:45.429Z,98910.13
2023-01-13T20:30:49.332Z,98907.38
2023-01-13T20:34:51.929Z,98910.38
2023-01-13T20:39:02.103Z,98915.34
2023-01-13T20:43:05.531Z,98920.41
2023-01-13T20:47:09.288Z,98926.72
2023-01-13T20:51:12.276Z,98928.09
2023-01-13T20:55:14.788Z,98928.41
2023-01-13T20:59:17.101Z,98920.94
2023-01-13T21:03:20.091Z,98922.22
2023-01-13T21:07:22.513Z,98924.31
2023-01-13T21:11:45.285Z,98924.19
2023-01-13T21:15:48.430Z,98923.94
2023-01-13T21:19:50.698Z,98925.69
2023-01-13T21:23:53.618Z,98913.50
2023-01-13T21:28:04.304Z,98917.28
2023-01-13T21:32:06.741Z,98923.06
2023-01-13T21:36:11.875Z,98925.50
2023-01-13T21:40:14.940Z,98937.00
2023-01-13T21:44:38.618Z,98940.00
2023-01-13T21:48:40.793Z,98937.25
2023-01-13T21:52:43.401Z,98940.66
2023-01-13T21:56:45.523Z,98944.34
2023-01-13T22:00:49.364Z,98943.88
2023-01-13T22:04:52.319Z,98948.03
2023-01-13T22:08:55.741Z,98935.84
2023-01-13T22:13:21.007Z,98943.56
2023-01-13T22:17:25.375Z,98948.94
2023-01-13T22:21:27.423Z,98947.91
2023-01-13T22:25:30.371Z,98939.50
2023-01-13T22:29:32.452Z,98937.88
2023-01-13T22:33:34.555Z,98948.69
2023-01-13T22:37:36.712Z,98953.53
2023-01-13T22:41:38.838Z,98960.59
2023-01-13T22:45:40.953Z,98948.16
2023-01-13T22:49:47.689Z,98945.63
2023-01-13T22:53:50.291Z,98948.66
2023-01-13T22:57:53.164Z,98950.72
2023-01-13T23:01:55.195Z,98958.13
2023-01-13T23:05:57.920Z,98946.13
2023-01-13T23:10:00.177Z,98951.03
2023-01-13T23:14:05.179Z,98940.59
2023-01-13T23:18:07.280Z,98937.09
2023-01-13T23:22:09.701Z,98945.44
2023-01-13T23:26:12.730Z,98939.13
2023-01-13T23:30:14.927Z,98928.06
2023-01-13T23:34:17.075Z,98932.69
2023-01-13T23:38:19.135Z,98942.94
2023-01-13T23:42:21.312Z,98940.28
2023-01-13T23:46:23.820Z,98931.91
2023-01-13T23:50:25.920Z,98923.22
2023-01-13T23:54:28.043Z,98918.31
2023-01-13T23:58:31.275Z,98932.31
